Terminal Aerodrome Forecast
Issued by NWS Tallahassee, FL

Home | Current Version | Previous Version | Text Only | Print | Product List | Glossary On
Versions: 1 2 3 4 5 6 7 8 9 10 11 12 13 14 15 16
000
FTUS42 KTAE 250500
TAFTLH
TAF
KTLH 250538Z 2506/2606 27003KT 6SM BR BKN005
      TEMPO 2508/2512 1SM BR BKN002
     FM251300 24007KT P6SM BKN025
     FM251600 25012G17KT P6SM SCT040
     FM260100 25003KT P6SM FEW040=

USA.gov is the U.S. government's official web portal to all federal, state and local government web resources and services.